sensor_id;sensor_type;location;lat;lon;timestamp;P1;durP1;ratioP1;P2;durP2;ratioP2
16854;SDS011;8543;54.522;18.550;2023-03-17T00:02:07;9.90;;;3.80;;
16854;SDS011;8543;54.522;18.550;2023-03-17T00:04:33;5.90;;;2.80;;
16854;SDS011;8543;54.522;18.550;2023-03-17T00:06:58;6.40;;;3.00;;
16854;SDS011;8543;54.522;18.550;2023-03-17T00:09:24;5.90;;;2.80;;
16854;SDS011;8543;54.522;18.550;2023-03-17T00:11:49;6.30;;;3.10;;
16854;SDS011;8543;54.522;18.550;2023-03-17T00:14:15;7.40;;;3.40;;
16854;SDS011;8543;54.522;18.550;2023-03-17T00:16:41;6.80;;;3.10;;
16854;SDS011;8543;54.522;18.550;2023-03-17T00:19:16;5.80;;;2.70;;
16854;SDS011;8543;54.522;18.550;2023-03-17T00:21:48;6.20;;;3.50;;
16854;SDS011;8543;54.522;18.550;2023-03-17T00:24:13;6.30;;;3.00;;
16854;SDS011;8543;54.522;18.550;2023-03-17T00:26:39;7.60;;;3.10;;
16854;SDS011;8543;54.522;18.550;2023-03-17T00:29:05;8.80;;;3.40;;
16854;SDS011;8543;54.522;18.550;2023-03-17T00:31:31;8.30;;;3.40;;
16854;SDS011;8543;54.522;18.550;2023-03-17T00:33:58;7.60;;;3.50;;
16854;SDS011;8543;54.522;18.550;2023-03-17T00:36:28;7.60;;;3.20;;
16854;SDS011;8543;54.522;18.550;2023-03-17T00:38:55;8.70;;;3.60;;
16854;SDS011;8543;54.522;18.550;2023-03-17T00:41:21;8.50;;;3.30;;
16854;SDS011;8543;54.522;18.550;2023-03-17T00:43:47;9.00;;;3.00;;
16854;SDS011;8543;54.522;18.550;2023-03-17T00:48:51;13.70;;;5.60;;
16854;SDS011;8543;54.522;18.550;2023-03-17T00:51:18;10.80;;;4.40;;
16854;SDS011;8543;54.522;18.550;2023-03-17T00:53:45;14.10;;;5.50;;
16854;SDS011;8543;54.522;18.550;2023-03-17T00:56:14;12.80;;;4.40;;
16854;SDS011;8543;54.522;18.550;2023-03-17T00:58:41;12.90;;;4.20;;
16854;SDS011;8543;54.522;18.550;2023-03-17T01:01:07;7.60;;;3.30;;
16854;SDS011;8543;54.522;18.550;2023-03-17T01:03:32;9.00;;;3.70;;
16854;SDS011;8543;54.522;18.550;2023-03-17T01:05:58;8.10;;;3.10;;
16854;SDS011;8543;54.522;18.550;2023-03-17T01:08:24;8.10;;;3.20;;
16854;SDS011;8543;54.522;18.550;2023-03-17T01:10:50;7.40;;;2.90;;
16854;SDS011;8543;54.522;18.550;2023-03-17T01:13:16;6.60;;;2.70;;
16854;SDS011;8543;54.522;18.550;2023-03-17T01:15:45;7.60;;;3.30;;
16854;SDS011;8543;54.522;18.550;2023-03-17T01:18:12;6.20;;;3.00;;
16854;SDS011;8543;54.522;18.550;2023-03-17T01:20:40;10.20;;;2.80;;
16854;SDS011;8543;54.522;18.550;2023-03-17T01:23:06;6.90;;;2.70;;
16854;SDS011;8543;54.522;18.550;2023-03-17T01:25:33;8.30;;;2.80;;
16854;SDS011;8543;54.522;18.550;2023-03-17T01:27:59;8.50;;;2.90;;
16854;SDS011;8543;54.522;18.550;2023-03-17T01:30:27;6.80;;;2.70;;
16854;SDS011;8543;54.522;18.550;2023-03-17T01:32:55;6.60;;;2.50;;
16854;SDS011;8543;54.522;18.550;2023-03-17T01:35:21;5.90;;;2.40;;
16854;SDS011;8543;54.522;18.550;2023-03-17T01:37:48;5.10;;;2.20;;
16854;SDS011;8543;54.522;18.550;2023-03-17T01:40:20;8.70;;;2.80;;
16854;SDS011;8543;54.522;18.550;2023-03-17T01:42:50;5.40;;;2.60;;
16854;SDS011;8543;54.522;18.550;2023-03-17T01:48:27;6.10;;;2.80;;
16854;SDS011;8543;54.522;18.550;2023-03-17T01:50:54;5.10;;;2.30;;
16854;SDS011;8543;54.522;18.550;2023-03-17T01:53:20;6.70;;;2.30;;
16854;SDS011;8543;54.522;18.550;2023-03-17T01:55:46;6.60;;;2.50;;
16854;SDS011;8543;54.522;18.550;2023-03-17T01:58:13;3.70;;;2.20;;
16854;SDS011;8543;54.522;18.550;2023-03-17T02:00:39;7.90;;;2.80;;
16854;SDS011;8543;54.522;18.550;2023-03-17T02:03:05;10.50;;;2.60;;
16854;SDS011;8543;54.522;18.550;2023-03-17T02:05:30;6.50;;;2.50;;
16854;SDS011;8543;54.522;18.550;2023-03-17T02:07:57;6.00;;;2.70;;
16854;SDS011;8543;54.522;18.550;2023-03-17T02:10:24;5.10;;;2.50;;
16854;SDS011;8543;54.522;18.550;2023-03-17T02:12:52;6.40;;;2.60;;
16854;SDS011;8543;54.522;18.550;2023-03-17T02:15:19;6.60;;;2.70;;
16854;SDS011;8543;54.522;18.550;2023-03-17T02:17:45;8.00;;;2.80;;
16854;SDS011;8543;54.522;18.550;2023-03-17T02:22:39;6.50;;;2.80;;
16854;SDS011;8543;54.522;18.550;2023-03-17T02:25:05;6.20;;;3.20;;
16854;SDS011;8543;54.522;18.550;2023-03-17T02:27:33;6.80;;;3.10;;
16854;SDS011;8543;54.522;18.550;2023-03-17T02:30:00;6.40;;;3.00;;
16854;SDS011;8543;54.522;18.550;2023-03-17T02:32:26;6.20;;;3.30;;
16854;SDS011;8543;54.522;18.550;2023-03-17T02:34:52;9.70;;;3.70;;
16854;SDS011;8543;54.522;18.550;2023-03-17T02:37:17;7.50;;;3.20;;
16854;SDS011;8543;54.522;18.550;2023-03-17T02:39:44;7.40;;;3.20;;
16854;SDS011;8543;54.522;18.550;2023-03-17T02:42:09;11.00;;;3.90;;
16854;SDS011;8543;54.522;18.550;2023-03-17T02:44:36;10.90;;;4.70;;
16854;SDS011;8543;54.522;18.550;2023-03-17T02:47:02;9.60;;;4.40;;
16854;SDS011;8543;54.522;18.550;2023-03-17T02:49:28;13.50;;;4.80;;
16854;SDS011;8543;54.522;18.550;2023-03-17T02:51:54;8.40;;;4.00;;
16854;SDS011;8543;54.522;18.550;2023-03-17T02:54:21;8.30;;;3.70;;
16854;SDS011;8543;54.522;18.550;2023-03-17T02:56:46;5.90;;;3.40;;
16854;SDS011;8543;54.522;18.550;2023-03-17T02:59:12;8.80;;;3.80;;
16854;SDS011;8543;54.522;18.550;2023-03-17T03:01:37;10.90;;;4.20;;
16854;SDS011;8543;54.522;18.550;2023-03-17T03:04:03;9.20;;;4.00;;
16854;SDS011;8543;54.522;18.550;2023-03-17T03:06:31;8.70;;;3.80;;
16854;SDS011;8543;54.522;18.550;2023-03-17T03:08:57;8.40;;;4.10;;
16854;SDS011;8543;54.522;18.550;2023-03-17T03:11:22;7.30;;;3.60;;
16854;SDS011;8543;54.522;18.550;2023-03-17T03:13:47;8.30;;;3.60;;
16854;SDS011;8543;54.522;18.550;2023-03-17T03:16:13;9.50;;;3.90;;
16854;SDS011;8543;54.522;18.550;2023-03-17T03:18:39;8.00;;;3.50;;
16854;SDS011;8543;54.522;18.550;2023-03-17T03:21:05;10.10;;;4.10;;
16854;SDS011;8543;54.522;18.550;2023-03-17T03:23:30;6.20;;;3.70;;
16854;SDS011;8543;54.522;18.550;2023-03-17T03:25:55;9.60;;;3.40;;
16854;SDS011;8543;54.522;18.550;2023-03-17T03:28:21;8.80;;;3.80;;
16854;SDS011;8543;54.522;18.550;2023-03-17T03:30:47;7.30;;;3.50;;
16854;SDS011;8543;54.522;18.550;2023-03-17T03:33:13;8.40;;;3.70;;
16854;SDS011;8543;54.522;18.550;2023-03-17T03:35:39;9.30;;;3.60;;
16854;SDS011;8543;54.522;18.550;2023-03-17T03:38:05;6.70;;;3.40;;
16854;SDS011;8543;54.522;18.550;2023-03-17T03:40:31;11.30;;;3.70;;
16854;SDS011;8543;54.522;18.550;2023-03-17T03:42:56;7.90;;;3.10;;
16854;SDS011;8543;54.522;18.550;2023-03-17T03:45:22;9.30;;;3.80;;
16854;SDS011;8543;54.522;18.550;2023-03-17T03:47:47;10.20;;;3.50;;
16854;SDS011;8543;54.522;18.550;2023-03-17T03:50:13;7.40;;;3.60;;
16854;SDS011;8543;54.522;18.550;2023-03-17T03:52:39;10.40;;;3.90;;
16854;SDS011;8543;54.522;18.550;2023-03-17T03:55:04;8.30;;;2.90;;
16854;SDS011;8543;54.522;18.550;2023-03-17T03:57:30;6.80;;;3.20;;
16854;SDS011;8543;54.522;18.550;2023-03-17T03:59:56;6.30;;;3.70;;
16854;SDS011;8543;54.522;18.550;2023-03-17T04:02:21;8.90;;;3.50;;
16854;SDS011;8543;54.522;18.550;2023-03-17T04:04:47;10.20;;;4.10;;
16854;SDS011;8543;54.522;18.550;2023-03-17T04:07:13;8.80;;;3.30;;
16854;SDS011;8543;54.522;18.550;2023-03-17T04:09:38;8.20;;;4.10;;
16854;SDS011;8543;54.522;18.550;2023-03-17T04:12:04;7.40;;;3.40;;
16854;SDS011;8543;54.522;18.550;2023-03-17T04:14:30;6.80;;;3.30;;
16854;SDS011;8543;54.522;18.550;2023-03-17T04:16:57;9.40;;;4.10;;
16854;SDS011;8543;54.522;18.550;2023-03-17T04:19:22;6.40;;;3.70;;
16854;SDS011;8543;54.522;18.550;2023-03-17T04:21:48;11.00;;;4.20;;
16854;SDS011;8543;54.522;18.550;2023-03-17T04:24:13;8.30;;;4.00;;
16854;SDS011;8543;54.522;18.550;2023-03-17T04:26:39;8.60;;;4.30;;
16854;SDS011;8543;54.522;18.550;2023-03-17T04:29:05;12.10;;;3.80;;
16854;SDS011;8543;54.522;18.550;2023-03-17T04:31:33;7.30;;;3.70;;
16854;SDS011;8543;54.522;18.550;2023-03-17T04:33:59;8.10;;;3.80;;
16854;SDS011;8543;54.522;18.550;2023-03-17T04:36:25;9.90;;;4.20;;
16854;SDS011;8543;54.522;18.550;2023-03-17T04:38:51;8.30;;;4.10;;
16854;SDS011;8543;54.522;18.550;2023-03-17T04:41:16;7.20;;;3.80;;
16854;SDS011;8543;54.522;18.550;2023-03-17T04:43:42;10.00;;;4.40;;
16854;SDS011;8543;54.522;18.550;2023-03-17T04:46:07;8.70;;;4.20;;
16854;SDS011;8543;54.522;18.550;2023-03-17T04:48:33;7.90;;;4.00;;
16854;SDS011;8543;54.522;18.550;2023-03-17T04:51:00;8.60;;;4.50;;
16854;SDS011;8543;54.522;18.550;2023-03-17T04:53:25;13.80;;;5.40;;
16854;SDS011;8543;54.522;18.550;2023-03-17T04:55:51;8.30;;;4.20;;
16854;SDS011;8543;54.522;18.550;2023-03-17T04:58:16;9.00;;;4.50;;
16854;SDS011;8543;54.522;18.550;2023-03-17T05:00:42;9.00;;;4.70;;
16854;SDS011;8543;54.522;18.550;2023-03-17T05:03:07;6.70;;;4.40;;
16854;SDS011;8543;54.522;18.550;2023-03-17T05:05:33;8.60;;;4.20;;
16854;SDS011;8543;54.522;18.550;2023-03-17T05:07:59;10.10;;;4.80;;
16854;SDS011;8543;54.522;18.550;2023-03-17T05:10:24;10.40;;;5.50;;
16854;SDS011;8543;54.522;18.550;2023-03-17T05:12:50;10.40;;;5.20;;
16854;SDS011;8543;54.522;18.550;2023-03-17T05:15:16;9.60;;;4.40;;
16854;SDS011;8543;54.522;18.550;2023-03-17T05:17:41;7.70;;;4.90;;
16854;SDS011;8543;54.522;18.550;2023-03-17T05:20:07;10.80;;;5.70;;
16854;SDS011;8543;54.522;18.550;2023-03-17T05:22:34;8.70;;;4.70;;
16854;SDS011;8543;54.522;18.550;2023-03-17T05:25:00;9.00;;;5.40;;
16854;SDS011;8543;54.522;18.550;2023-03-17T05:27:26;11.30;;;6.10;;
16854;SDS011;8543;54.522;18.550;2023-03-17T05:29:52;15.10;;;7.80;;
16854;SDS011;8543;54.522;18.550;2023-03-17T05:32:17;9.90;;;6.60;;
16854;SDS011;8543;54.522;18.550;2023-03-17T05:34:43;12.00;;;6.80;;
16854;SDS011;8543;54.522;18.550;2023-03-17T05:37:09;14.80;;;6.60;;
16854;SDS011;8543;54.522;18.550;2023-03-17T05:39:35;13.80;;;6.50;;
16854;SDS011;8543;54.522;18.550;2023-03-17T05:42:01;12.00;;;5.60;;
16854;SDS011;8543;54.522;18.550;2023-03-17T05:44:26;11.30;;;6.90;;
16854;SDS011;8543;54.522;18.550;2023-03-17T05:46:51;11.10;;;6.80;;
16854;SDS011;8543;54.522;18.550;2023-03-17T05:49:17;10.10;;;6.20;;
16854;SDS011;8543;54.522;18.550;2023-03-17T05:51:43;15.50;;;6.90;;
16854;SDS011;8543;54.522;18.550;2023-03-17T05:54:08;12.80;;;7.10;;
16854;SDS011;8543;54.522;18.550;2023-03-17T05:56:34;13.50;;;7.50;;
16854;SDS011;8543;54.522;18.550;2023-03-17T05:59:00;13.60;;;7.30;;
16854;SDS011;8543;54.522;18.550;2023-03-17T06:01:26;12.10;;;6.80;;
16854;SDS011;8543;54.522;18.550;2023-03-17T06:03:52;14.30;;;8.40;;
16854;SDS011;8543;54.522;18.550;2023-03-17T06:06:18;13.70;;;7.40;;
16854;SDS011;8543;54.522;18.550;2023-03-17T06:08:43;15.40;;;8.80;;
16854;SDS011;8543;54.522;18.550;2023-03-17T06:11:09;18.10;;;10.00;;
16854;SDS011;8543;54.522;18.550;2023-03-17T06:13:35;20.90;;;10.20;;
16854;SDS011;8543;54.522;18.550;2023-03-17T06:16:00;18.90;;;9.80;;
16854;SDS011;8543;54.522;18.550;2023-03-17T06:18:26;16.70;;;8.80;;
16854;SDS011;8543;54.522;18.550;2023-03-17T06:20:52;15.70;;;9.20;;
16854;SDS011;8543;54.522;18.550;2023-03-17T06:23:17;13.00;;;8.00;;
16854;SDS011;8543;54.522;18.550;2023-03-17T06:25:43;13.40;;;7.70;;
16854;SDS011;8543;54.522;18.550;2023-03-17T06:28:08;20.40;;;9.50;;
16854;SDS011;8543;54.522;18.550;2023-03-17T06:30:34;19.30;;;10.60;;
16854;SDS011;8543;54.522;18.550;2023-03-17T06:33:01;16.60;;;10.60;;
16854;SDS011;8543;54.522;18.550;2023-03-17T06:35:27;18.50;;;10.60;;
16854;SDS011;8543;54.522;18.550;2023-03-17T06:37:53;21.80;;;10.70;;
16854;SDS011;8543;54.522;18.550;2023-03-17T06:40:19;18.20;;;10.00;;
16854;SDS011;8543;54.522;18.550;2023-03-17T06:42:45;18.90;;;9.80;;
16854;SDS011;8543;54.522;18.550;2023-03-17T06:45:10;17.30;;;10.00;;
16854;SDS011;8543;54.522;18.550;2023-03-17T06:47:36;24.50;;;11.90;;
16854;SDS011;8543;54.522;18.550;2023-03-17T06:50:02;20.00;;;10.70;;
16854;SDS011;8543;54.522;18.550;2023-03-17T06:52:28;18.60;;;12.00;;
16854;SDS011;8543;54.522;18.550;2023-03-17T06:54:54;15.70;;;9.20;;
16854;SDS011;8543;54.522;18.550;2023-03-17T06:57:19;18.40;;;9.80;;
16854;SDS011;8543;54.522;18.550;2023-03-17T06:59:45;18.20;;;10.40;;
16854;SDS011;8543;54.522;18.550;2023-03-17T07:02:11;19.30;;;10.90;;
16854;SDS011;8543;54.522;18.550;2023-03-17T07:04:36;19.90;;;11.30;;
16854;SDS011;8543;54.522;18.550;2023-03-17T07:07:05;20.60;;;11.80;;
16854;SDS011;8543;54.522;18.550;2023-03-17T07:09:31;21.60;;;11.80;;
16854;SDS011;8543;54.522;18.550;2023-03-17T07:12:00;22.80;;;12.30;;
16854;SDS011;8543;54.522;18.550;2023-03-17T07:14:30;19.00;;;11.90;;
16854;SDS011;8543;54.522;18.550;2023-03-17T07:16:57;20.10;;;12.80;;
16854;SDS011;8543;54.522;18.550;2023-03-17T07:19:24;20.40;;;11.40;;
16854;SDS011;8543;54.522;18.550;2023-03-17T07:21:50;19.30;;;11.80;;
16854;SDS011;8543;54.522;18.550;2023-03-17T07:24:16;17.50;;;10.60;;
16854;SDS011;8543;54.522;18.550;2023-03-17T07:26:41;20.40;;;12.00;;
16854;SDS011;8543;54.522;18.550;2023-03-17T07:29:07;18.60;;;11.60;;
16854;SDS011;8543;54.522;18.550;2023-03-17T07:31:33;19.30;;;10.60;;
16854;SDS011;8543;54.522;18.550;2023-03-17T07:34:02;19.90;;;11.50;;
16854;SDS011;8543;54.522;18.550;2023-03-17T07:36:28;20.60;;;11.80;;
16854;SDS011;8543;54.522;18.550;2023-03-17T07:38:54;22.60;;;12.30;;
16854;SDS011;8543;54.522;18.550;2023-03-17T07:41:20;18.60;;;10.00;;
16854;SDS011;8543;54.522;18.550;2023-03-17T07:43:46;18.90;;;11.80;;
16854;SDS011;8543;54.522;18.550;2023-03-17T07:46:12;20.00;;;12.10;;
16854;SDS011;8543;54.522;18.550;2023-03-17T07:48:38;16.20;;;9.40;;
16854;SDS011;8543;54.522;18.550;2023-03-17T07:51:08;17.90;;;11.90;;
16854;SDS011;8543;54.522;18.550;2023-03-17T07:53:36;20.20;;;11.80;;
16854;SDS011;8543;54.522;18.550;2023-03-17T07:56:01;18.90;;;12.30;;
16854;SDS011;8543;54.522;18.550;2023-03-17T07:58:27;20.90;;;11.40;;
16854;SDS011;8543;54.522;18.550;2023-03-17T08:00:52;16.10;;;10.30;;
16854;SDS011;8543;54.522;18.550;2023-03-17T08:03:17;21.70;;;12.40;;
16854;SDS011;8543;54.522;18.550;2023-03-17T08:05:43;22.00;;;11.30;;
16854;SDS011;8543;54.522;18.550;2023-03-17T08:08:09;16.90;;;11.10;;
16854;SDS011;8543;54.522;18.550;2023-03-17T08:10:35;15.90;;;10.70;;
16854;SDS011;8543;54.522;18.550;2023-03-17T08:13:00;18.00;;;11.80;;
16854;SDS011;8543;54.522;18.550;2023-03-17T08:15:26;22.90;;;13.00;;
16854;SDS011;8543;54.522;18.550;2023-03-17T08:17:51;19.70;;;12.00;;
16854;SDS011;8543;54.522;18.550;2023-03-17T08:20:17;18.60;;;11.90;;
16854;SDS011;8543;54.522;18.550;2023-03-17T08:22:43;19.60;;;11.50;;
16854;SDS011;8543;54.522;18.550;2023-03-17T08:25:08;18.60;;;12.40;;
16854;SDS011;8543;54.522;18.550;2023-03-17T08:27:34;18.60;;;11.50;;
16854;SDS011;8543;54.522;18.550;2023-03-17T08:29:59;19.70;;;13.40;;
16854;SDS011;8543;54.522;18.550;2023-03-17T08:32:24;19.60;;;12.30;;
16854;SDS011;8543;54.522;18.550;2023-03-17T08:34:53;18.30;;;11.80;;
16854;SDS011;8543;54.522;18.550;2023-03-17T08:37:19;19.00;;;10.60;;
16854;SDS011;8543;54.522;18.550;2023-03-17T08:39:46;17.60;;;12.30;;
16854;SDS011;8543;54.522;18.550;2023-03-17T08:42:11;19.80;;;12.40;;
16854;SDS011;8543;54.522;18.550;2023-03-17T08:44:37;18.10;;;12.40;;
16854;SDS011;8543;54.522;18.550;2023-03-17T08:47:02;19.60;;;12.90;;
16854;SDS011;8543;54.522;18.550;2023-03-17T08:49:28;20.40;;;13.50;;
16854;SDS011;8543;54.522;18.550;2023-03-17T08:51:55;19.20;;;12.70;;
16854;SDS011;8543;54.522;18.550;2023-03-17T08:54:20;19.50;;;12.00;;
16854;SDS011;8543;54.522;18.550;2023-03-17T08:56:46;20.20;;;12.20;;
16854;SDS011;8543;54.522;18.550;2023-03-17T08:59:11;16.40;;;11.70;;
16854;SDS011;8543;54.522;18.550;2023-03-17T09:01:37;18.70;;;12.90;;
16854;SDS011;8543;54.522;18.550;2023-03-17T09:04:04;18.80;;;11.60;;
16854;SDS011;8543;54.522;18.550;2023-03-17T09:06:30;17.00;;;10.90;;
16854;SDS011;8543;54.522;18.550;2023-03-17T09:08:55;18.90;;;11.70;;
16854;SDS011;8543;54.522;18.550;2023-03-17T09:11:22;20.80;;;12.80;;
16854;SDS011;8543;54.522;18.550;2023-03-17T09:13:50;18.10;;;11.10;;
16854;SDS011;8543;54.522;18.550;2023-03-17T09:16:16;17.20;;;11.80;;
16854;SDS011;8543;54.522;18.550;2023-03-17T09:18:42;20.30;;;11.70;;
16854;SDS011;8543;54.522;18.550;2023-03-17T09:21:09;21.40;;;12.90;;
16854;SDS011;8543;54.522;18.550;2023-03-17T09:23:35;18.40;;;11.10;;
16854;SDS011;8543;54.522;18.550;2023-03-17T09:26:01;17.70;;;11.90;;
16854;SDS011;8543;54.522;18.550;2023-03-17T09:28:27;20.60;;;12.60;;
16854;SDS011;8543;54.522;18.550;2023-03-17T09:30:56;17.80;;;9.60;;
16854;SDS011;8543;54.522;18.550;2023-03-17T09:33:26;19.30;;;10.00;;
16854;SDS011;8543;54.522;18.550;2023-03-17T09:35:51;15.90;;;9.40;;
16854;SDS011;8543;54.522;18.550;2023-03-17T09:38:18;19.30;;;10.40;;
16854;SDS011;8543;54.522;18.550;2023-03-17T09:46:27;17.80;;;10.50;;
16854;SDS011;8543;54.522;18.550;2023-03-17T09:49:02;17.40;;;10.70;;
16854;SDS011;8543;54.522;18.550;2023-03-17T09:51:29;13.10;;;8.60;;
16854;SDS011;8543;54.522;18.550;2023-03-17T09:53:57;17.40;;;10.40;;
16854;SDS011;8543;54.522;18.550;2023-03-17T09:56:27;14.80;;;9.40;;
16854;SDS011;8543;54.522;18.550;2023-03-17T09:58:58;15.50;;;10.50;;
16854;SDS011;8543;54.522;18.550;2023-03-17T10:01:28;18.00;;;9.80;;
16854;SDS011;8543;54.522;18.550;2023-03-17T10:03:53;13.70;;;8.30;;
16854;SDS011;8543;54.522;18.550;2023-03-17T10:11:42;17.00;;;10.00;;
16854;SDS011;8543;54.522;18.550;2023-03-17T10:14:21;13.80;;;8.30;;
16854;SDS011;8543;54.522;18.550;2023-03-17T10:16:57;14.10;;;9.50;;
16854;SDS011;8543;54.522;18.550;2023-03-17T10:19:39;16.20;;;8.90;;
16854;SDS011;8543;54.522;18.550;2023-03-17T10:22:18;16.00;;;9.50;;
16854;SDS011;8543;54.522;18.550;2023-03-17T10:24:49;15.20;;;8.70;;
16854;SDS011;8543;54.522;18.550;2023-03-17T10:27:17;14.00;;;8.80;;
16854;SDS011;8543;54.522;18.550;2023-03-17T10:29:43;14.80;;;8.50;;
16854;SDS011;8543;54.522;18.550;2023-03-17T10:32:10;13.00;;;8.70;;
16854;SDS011;8543;54.522;18.550;2023-03-17T10:34:37;16.20;;;8.90;;
16854;SDS011;8543;54.522;18.550;2023-03-17T10:37:11;14.30;;;8.90;;
16854;SDS011;8543;54.522;18.550;2023-03-17T10:39:43;16.70;;;10.00;;
16854;SDS011;8543;54.522;18.550;2023-03-17T10:42:12;14.60;;;9.00;;
16854;SDS011;8543;54.522;18.550;2023-03-17T10:52:40;15.00;;;9.00;;
16854;SDS011;8543;54.522;18.550;2023-03-17T10:55:06;15.70;;;9.60;;
16854;SDS011;8543;54.522;18.550;2023-03-17T10:57:37;13.00;;;8.40;;
16854;SDS011;8543;54.522;18.550;2023-03-17T11:00:14;13.70;;;7.60;;
16854;SDS011;8543;54.522;18.550;2023-03-17T11:02:50;10.60;;;7.80;;
16854;SDS011;8543;54.522;18.550;2023-03-17T11:05:21;13.90;;;8.20;;
16854;SDS011;8543;54.522;18.550;2023-03-17T11:07:49;14.80;;;8.90;;
16854;SDS011;8543;54.522;18.550;2023-03-17T11:10:22;13.30;;;8.20;;
16854;SDS011;8543;54.522;18.550;2023-03-17T11:12:59;13.90;;;9.60;;
16854;SDS011;8543;54.522;18.550;2023-03-17T11:15:31;15.20;;;8.60;;
16854;SDS011;8543;54.522;18.550;2023-03-17T11:18:01;12.50;;;8.40;;
16854;SDS011;8543;54.522;18.550;2023-03-17T11:23:31;10.40;;;6.60;;
16854;SDS011;8543;54.522;18.550;2023-03-17T11:26:32;15.30;;;8.50;;
16854;SDS011;8543;54.522;18.550;2023-03-17T11:37:10;11.30;;;6.60;;
16854;SDS011;8543;54.522;18.550;2023-03-17T11:42:10;11.40;;;7.20;;
16854;SDS011;8543;54.522;18.550;2023-03-17T11:44:54;22.10;;;7.00;;
16854;SDS011;8543;54.522;18.550;2023-03-17T11:50:02;11.00;;;7.20;;
16854;SDS011;8543;54.522;18.550;2023-03-17T11:52:53;10.70;;;7.50;;
16854;SDS011;8543;54.522;18.550;2023-03-17T11:58:04;9.30;;;6.40;;
16854;SDS011;8543;54.522;18.550;2023-03-17T12:00:43;13.70;;;8.00;;
16854;SDS011;8543;54.522;18.550;2023-03-17T12:03:16;12.00;;;6.50;;
16854;SDS011;8543;54.522;18.550;2023-03-17T12:06:04;12.70;;;7.40;;
16854;SDS011;8543;54.522;18.550;2023-03-17T12:08:40;12.30;;;7.10;;
16854;SDS011;8543;54.522;18.550;2023-03-17T12:11:11;14.10;;;7.40;;
16854;SDS011;8543;54.522;18.550;2023-03-17T12:18:59;13.50;;;6.90;;
16854;SDS011;8543;54.522;18.550;2023-03-17T12:21:32;11.70;;;7.10;;
16854;SDS011;8543;54.522;18.550;2023-03-17T12:29:41;8.60;;;6.00;;
16854;SDS011;8543;54.522;18.550;2023-03-17T12:34:58;9.70;;;5.60;;
16854;SDS011;8543;54.522;18.550;2023-03-17T12:37:29;14.70;;;7.30;;
16854;SDS011;8543;54.522;18.550;2023-03-17T12:39:59;13.60;;;7.70;;
16854;SDS011;8543;54.522;18.550;2023-03-17T12:43:05;11.30;;;6.90;;
16854;SDS011;8543;54.522;18.550;2023-03-17T12:53:48;11.80;;;7.70;;
16854;SDS011;8543;54.522;18.550;2023-03-17T12:58:50;11.20;;;6.20;;
16854;SDS011;8543;54.522;18.550;2023-03-17T13:09:43;13.20;;;7.60;;
16854;SDS011;8543;54.522;18.550;2023-03-17T13:14:55;13.40;;;7.70;;
16854;SDS011;8543;54.522;18.550;2023-03-17T13:24:47;13.40;;;6.80;;
16854;SDS011;8543;54.522;18.550;2023-03-17T13:35:35;14.30;;;7.40;;
16854;SDS011;8543;54.522;18.550;2023-03-17T13:45:43;13.30;;;8.50;;
16854;SDS011;8543;54.522;18.550;2023-03-17T13:48:43;13.60;;;9.30;;
16854;SDS011;8543;54.522;18.550;2023-03-17T13:51:07;10.60;;;7.00;;
16854;SDS011;8543;54.522;18.550;2023-03-17T13:53:44;11.80;;;7.30;;
16854;SDS011;8543;54.522;18.550;2023-03-17T14:01:27;11.30;;;6.60;;
16854;SDS011;8543;54.522;18.550;2023-03-17T14:03:55;14.90;;;8.40;;
16854;SDS011;8543;54.522;18.550;2023-03-17T14:06:27;14.60;;;7.50;;
16854;SDS011;8543;54.522;18.550;2023-03-17T14:09:06;14.10;;;7.40;;
16854;SDS011;8543;54.522;18.550;2023-03-17T14:11:38;15.00;;;7.50;;
16854;SDS011;8543;54.522;18.550;2023-03-17T14:14:15;15.50;;;7.80;;
16854;SDS011;8543;54.522;18.550;2023-03-17T14:17:12;13.70;;;8.50;;
16854;SDS011;8543;54.522;18.550;2023-03-17T14:19:40;13.40;;;7.60;;
16854;SDS011;8543;54.522;18.550;2023-03-17T14:22:24;12.10;;;8.20;;
16854;SDS011;8543;54.522;18.550;2023-03-17T14:24:50;11.60;;;7.10;;
16854;SDS011;8543;54.522;18.550;2023-03-17T14:27:17;14.20;;;8.50;;
16854;SDS011;8543;54.522;18.550;2023-03-17T14:29:43;12.40;;;7.60;;
16854;SDS011;8543;54.522;18.550;2023-03-17T14:32:12;11.50;;;7.70;;
16854;SDS011;8543;54.522;18.550;2023-03-17T14:34:43;12.00;;;7.90;;
16854;SDS011;8543;54.522;18.550;2023-03-17T14:37:12;13.80;;;8.90;;
16854;SDS011;8543;54.522;18.550;2023-03-17T14:39:46;11.20;;;7.50;;
16854;SDS011;8543;54.522;18.550;2023-03-17T14:42:12;12.30;;;9.00;;
16854;SDS011;8543;54.522;18.550;2023-03-17T14:44:41;13.40;;;8.10;;
16854;SDS011;8543;54.522;18.550;2023-03-17T14:47:25;12.10;;;8.10;;
16854;SDS011;8543;54.522;18.550;2023-03-17T14:49:54;11.60;;;8.10;;
16854;SDS011;8543;54.522;18.550;2023-03-17T14:52:20;13.00;;;8.30;;
16854;SDS011;8543;54.522;18.550;2023-03-17T14:54:50;15.90;;;7.90;;
16854;SDS011;8543;54.522;18.550;2023-03-17T14:57:17;13.10;;;7.40;;
16854;SDS011;8543;54.522;18.550;2023-03-17T15:02:22;11.20;;;7.60;;
16854;SDS011;8543;54.522;18.550;2023-03-17T15:05:00;15.40;;;7.60;;
16854;SDS011;8543;54.522;18.550;2023-03-17T15:10:01;16.00;;;7.70;;
16854;SDS011;8543;54.522;18.550;2023-03-17T15:12:28;11.90;;;7.80;;
16854;SDS011;8543;54.522;18.550;2023-03-17T15:14:59;12.00;;;7.70;;
16854;SDS011;8543;54.522;18.550;2023-03-17T15:17:30;13.70;;;7.90;;
16854;SDS011;8543;54.522;18.550;2023-03-17T15:19:59;14.80;;;7.80;;
16854;SDS011;8543;54.522;18.550;2023-03-17T15:27:45;10.60;;;7.60;;
16854;SDS011;8543;54.522;18.550;2023-03-17T15:30:11;11.70;;;6.80;;
16854;SDS011;8543;54.522;18.550;2023-03-17T15:32:38;12.70;;;7.80;;
16854;SDS011;8543;54.522;18.550;2023-03-17T15:35:03;11.70;;;6.40;;
16854;SDS011;8543;54.522;18.550;2023-03-17T15:37:30;14.40;;;7.70;;
16854;SDS011;8543;54.522;18.550;2023-03-17T15:39:57;15.20;;;7.60;;
16854;SDS011;8543;54.522;18.550;2023-03-17T15:42:27;12.50;;;7.50;;
16854;SDS011;8543;54.522;18.550;2023-03-17T15:44:56;13.50;;;7.30;;
16854;SDS011;8543;54.522;18.550;2023-03-17T15:47:26;12.60;;;7.60;;
16854;SDS011;8543;54.522;18.550;2023-03-17T15:49:57;16.00;;;7.70;;
16854;SDS011;8543;54.522;18.550;2023-03-17T15:52:28;12.80;;;7.40;;
16854;SDS011;8543;54.522;18.550;2023-03-17T15:54:54;15.30;;;7.60;;
16854;SDS011;8543;54.522;18.550;2023-03-17T15:57:21;14.50;;;6.90;;
16854;SDS011;8543;54.522;18.550;2023-03-17T15:59:47;12.60;;;7.80;;
16854;SDS011;8543;54.522;18.550;2023-03-17T16:04:54;12.70;;;7.00;;
16854;SDS011;8543;54.522;18.550;2023-03-17T16:07:20;11.50;;;7.60;;
16854;SDS011;8543;54.522;18.550;2023-03-17T16:09:46;12.50;;;7.40;;
16854;SDS011;8543;54.522;18.550;2023-03-17T16:12:12;10.80;;;7.20;;
16854;SDS011;8543;54.522;18.550;2023-03-17T16:14:38;14.80;;;7.60;;
16854;SDS011;8543;54.522;18.550;2023-03-17T16:17:03;11.40;;;6.50;;
16854;SDS011;8543;54.522;18.550;2023-03-17T16:19:30;10.40;;;6.40;;
16854;SDS011;8543;54.522;18.550;2023-03-17T16:21:56;12.90;;;7.10;;
16854;SDS011;8543;54.522;18.550;2023-03-17T16:24:22;12.50;;;6.80;;
16854;SDS011;8543;54.522;18.550;2023-03-17T16:26:49;12.10;;;7.10;;
16854;SDS011;8543;54.522;18.550;2023-03-17T16:29:15;14.50;;;7.10;;
16854;SDS011;8543;54.522;18.550;2023-03-17T16:31:42;15.00;;;7.20;;
16854;SDS011;8543;54.522;18.550;2023-03-17T16:34:15;12.50;;;7.10;;
16854;SDS011;8543;54.522;18.550;2023-03-17T16:36:43;14.30;;;7.00;;
16854;SDS011;8543;54.522;18.550;2023-03-17T16:39:18;11.20;;;6.70;;
16854;SDS011;8543;54.522;18.550;2023-03-17T16:41:46;10.70;;;6.60;;
16854;SDS011;8543;54.522;18.550;2023-03-17T16:44:13;12.00;;;6.90;;